createdAt,value
2022-08-04T00:00:28.804Z,10.98
2022-08-04T00:03:17.204Z,10.43
2022-08-04T00:05:59.017Z,10.45
2022-08-04T00:08:41.717Z,11.35
2022-08-04T00:11:15.369Z,10.30
2022-08-04T00:13:58.189Z,9.38
2022-08-04T00:16:34.902Z,10.02
2022-08-04T00:19:11.534Z,10.15
2022-08-04T00:21:47.576Z,10.45
2022-08-04T00:24:17.837Z,9.73
2022-08-04T00:26:46.821Z,10.25
2022-08-04T00:29:15.208Z,11.02
2022-08-04T00:31:54.653Z,10.32
2022-08-04T00:34:27.010Z,10.77
2022-08-04T00:36:57.953Z,11.18
2022-08-04T00:39:26.974Z,11.95
2022-08-04T00:42:26.512Z,9.90
2022-08-04T00:45:13.828Z,9.65
2022-08-04T00:47:55.406Z,9.63
2022-08-04T00:50:32.679Z,9.35
2022-08-04T00:53:11.326Z,10.40
2022-08-04T00:56:05.899Z,10.18
2022-08-04T00:58:47.814Z,10.45
2022-08-04T01:01:34.604Z,10.65
2022-08-04T01:04:07.614Z,11.32
2022-08-04T01:06:40.511Z,11.00
2022-08-04T01:09:27.398Z,11.43
2022-08-04T01:12:09.573Z,10.55
2022-08-04T01:14:52.006Z,10.90
2022-08-04T01:17:25.641Z,11.73
2022-08-04T01:20:03.266Z,11.50
2022-08-04T01:22:55.229Z,11.70
2022-08-04T01:25:56.238Z,11.90
2022-08-04T01:28:49.619Z,12.48
2022-08-04T01:31:30.950Z,12.27
2022-08-04T01:34:04.139Z,10.77
2022-08-04T01:36:35.790Z,11.52
2022-08-04T01:39:27.457Z,10.30
2022-08-04T01:41:58.724Z,9.73
2022-08-04T01:44:29.800Z,10.38
2022-08-04T01:47:01.567Z,10.85
2022-08-04T01:49:39.832Z,9.73
2022-08-04T01:52:12.123Z,10.20
2022-08-04T01:54:43.367Z,10.43
2022-08-04T01:57:38.481Z,10.27
2022-08-04T02:00:01.842Z,10.80
2022-08-04T02:02:31.453Z,10.02
2022-08-04T02:04:59.622Z,11.07
2022-08-04T02:07:40.188Z,12.07
2022-08-04T02:10:18.361Z,11.50
2022-08-04T02:12:57.625Z,12.23
2022-08-04T02:15:31.377Z,11.73
2022-08-04T02:18:05.741Z,12.10
2022-08-04T02:20:39.918Z,11.90
2022-08-04T02:23:09.974Z,12.57
2022-08-04T02:25:41.795Z,12.00
2022-08-04T02:28:23.194Z,12.13
2022-08-04T02:31:04.691Z,11.63
2022-08-04T02:33:39.011Z,11.98
2022-08-04T02:36:10.493Z,12.80
2022-08-04T02:38:56.929Z,12.50
2022-08-04T02:41:28.038Z,11.30
2022-08-04T02:43:59.434Z,10.63
2022-08-04T02:46:28.271Z,10.88
2022-08-04T02:48:58.471Z,11.63
2022-08-04T02:51:30.826Z,10.32
2022-08-04T02:54:00.521Z,9.25
2022-08-04T02:56:31.265Z,9.45
2022-08-04T02:59:02.292Z,9.68
2022-08-04T03:01:31.022Z,10.32
2022-08-04T03:04:26.509Z,11.80
2022-08-04T03:07:30.403Z,10.00
2022-08-04T03:10:31.415Z,11.63
2022-08-04T03:13:38.882Z,10.80
2022-08-04T03:16:54.594Z,11.52
2022-08-04T03:19:56.391Z,9.43
2022-08-04T03:23:12.644Z,9.50
2022-08-04T03:26:43.987Z,9.38
2022-08-04T03:29:36.442Z,11.68
2022-08-04T03:32:42.455Z,10.10
2022-08-04T03:35:43.717Z,12.13
2022-08-04T03:38:42.841Z,8.30
2022-08-04T03:42:03.185Z,8.20
2022-08-04T03:45:23.053Z,8.55
2022-08-04T03:48:11.204Z,21.60
2022-08-04T03:51:35.221Z,22.05
2022-08-04T03:54:36.777Z,33.92
2022-08-04T03:57:34.815Z,32.92
2022-08-04T04:00:09.879Z,30.80
2022-08-04T04:03:03.606Z,25.70
2022-08-04T04:06:04.909Z,29.83
2022-08-04T04:08:52.371Z,22.90
2022-08-04T04:11:57.139Z,19.85
2022-08-04T04:14:47.368Z,12.05
2022-08-04T04:17:46.737Z,12.10
2022-08-04T04:20:42.582Z,13.00
2022-08-04T04:23:43.189Z,13.85
2022-08-04T04:26:39.462Z,13.60
2022-08-04T04:29:50.108Z,14.02
2022-08-04T04:32:25.125Z,14.88
2022-08-04T04:35:11.193Z,16.45
2022-08-04T04:38:05.910Z,19.17
2022-08-04T04:40:42.419Z,15.75
2022-08-04T04:43:50.905Z,18.42
2022-08-04T04:46:31.186Z,15.27
2022-08-04T04:49:04.317Z,13.32
2022-08-04T04:51:38.860Z,14.98
2022-08-04T04:54:15.032Z,14.38
2022-08-04T04:56:51.859Z,13.75
2022-08-04T04:59:23.327Z,13.75
2022-08-04T05:02:26.230Z,13.15
2022-08-04T05:05:12.437Z,11.20
2022-08-04T05:08:43.791Z,13.68
2022-08-04T05:11:05.679Z,10.23
2022-08-04T05:14:35.067Z,9.00
2022-08-04T05:16:33.651Z,8.50
2022-08-04T05:19:15.268Z,8.85
2022-08-04T05:21:48.168Z,8.48
2022-08-04T05:24:20.591Z,8.95
2022-08-04T05:26:52.727Z,8.93
2022-08-04T05:29:31.786Z,10.70
2022-08-04T05:32:06.715Z,8.98
2022-08-04T05:34:40.508Z,8.00
2022-08-04T05:37:10.859Z,10.43
2022-08-04T05:39:47.180Z,9.38
2022-08-04T05:42:16.518Z,8.60
2022-08-04T05:44:50.430Z,8.48
2022-08-04T05:47:22.501Z,8.73
2022-08-04T05:49:55.560Z,8.35
2022-08-04T05:52:31.446Z,10.52
2022-08-04T05:55:01.519Z,10.73
2022-08-04T05:57:30.826Z,10.95
2022-08-04T06:00:07.053Z,10.98
2022-08-04T06:02:50.522Z,12.88
2022-08-04T06:05:19.441Z,12.50
2022-08-04T06:08:12.273Z,12.27
2022-08-04T06:10:39.607Z,14.25
2022-08-04T06:13:49.730Z,14.52
2022-08-04T06:16:02.935Z,15.15
2022-08-04T06:20:03.708Z,13.60
2022-08-04T06:21:29.244Z,15.45
2022-08-04T06:24:04.302Z,17.23
2022-08-04T06:26:35.940Z,17.83
2022-08-04T06:29:05.894Z,17.83
2022-08-04T06:32:31.344Z,16.70
2022-08-04T06:34:36.421Z,17.17
2022-08-04T06:37:05.210Z,15.20
2022-08-04T06:39:35.073Z,17.48
2022-08-04T06:42:22.244Z,18.45
2022-08-04T06:44:52.936Z,18.25
2022-08-04T06:47:22.415Z,20.02
2022-08-04T06:51:28.657Z,23.50
2022-08-04T06:52:42.478Z,21.88
2022-08-04T06:55:10.921Z,27.42
2022-08-04T06:57:40.988Z,23.80
2022-08-04T07:00:11.992Z,47.55
2022-08-04T07:02:44.384Z,50.92
2022-08-04T07:05:14.439Z,53.38
2022-08-04T07:07:57.698Z,57.13
2022-08-04T07:10:28.650Z,59.20
2022-08-04T07:12:57.866Z,61.13
2022-08-04T07:15:27.617Z,67.78
2022-08-04T07:17:59.993Z,69.78
2022-08-04T07:20:35.397Z,54.28
2022-08-04T07:23:05.641Z,61.55
2022-08-04T07:26:11.095Z,56.08
2022-08-04T07:28:24.337Z,55.88
2022-08-04T07:30:53.781Z,57.72
2022-08-04T07:33:23.158Z,55.60
2022-08-04T07:36:04.694Z,55.25
2022-08-04T07:38:48.409Z,54.03
2022-08-04T07:41:39.389Z,54.47
2022-08-04T07:44:08.904Z,54.97
2022-08-04T07:46:37.445Z,57.45
2022-08-04T07:49:06.406Z,57.53
2022-08-04T07:51:37.311Z,66.75
2022-08-04T07:54:07.786Z,59.50
2022-08-04T07:56:37.723Z,56.72
2022-08-04T07:59:06.758Z,61.22
2022-08-04T08:01:36.289Z,62.17
2022-08-04T08:04:07.358Z,61.65
2022-08-04T08:06:43.125Z,68.15
2022-08-04T08:09:14.690Z,62.08
2022-08-04T08:12:37.805Z,60.95
2022-08-04T08:14:35.054Z,59.00
2022-08-04T08:17:04.244Z,56.95
2022-08-04T08:19:32.747Z,61.05
2022-08-04T08:22:05.502Z,62.30
2022-08-04T08:24:37.164Z,65.30
2022-08-04T08:27:06.870Z,59.80
2022-08-04T08:29:37.664Z,60.00
2022-08-04T08:32:09.103Z,62.25
2022-08-04T08:34:39.050Z,64.90
2022-08-04T08:37:15.708Z,65.35
2022-08-04T08:39:50.782Z,63.65
2022-08-04T08:44:00.491Z,66.35
2022-08-04T08:46:33.123Z,59.55
2022-08-04T08:50:02.819Z,57.25
2022-08-04T08:52:57.704Z,59.30
2022-08-04T08:55:43.872Z,55.60
2022-08-04T08:58:47.641Z,62.97
2022-08-04T09:01:30.743Z,60.53
2022-08-04T09:04:36.669Z,61.17
2022-08-04T09:07:19.597Z,59.47
2022-08-04T09:10:03.994Z,63.28
2022-08-04T09:12:42.613Z,61.70
2022-08-04T09:15:29.068Z,63.13
2022-08-04T09:18:03.460Z,64.78
2022-08-04T09:20:39.478Z,62.05
2022-08-04T09:23:20.009Z,60.08
2022-08-04T09:25:58.321Z,60.00
2022-08-04T09:28:52.319Z,60.35
2022-08-04T09:31:20.871Z,61.58
2022-08-04T09:34:00.209Z,62.85
2022-08-04T09:36:35.894Z,58.67
2022-08-04T09:39:13.138Z,56.22
2022-08-04T09:41:52.957Z,59.15
2022-08-04T09:44:49.906Z,59.42
2022-08-04T09:47:39.195Z,58.10
2022-08-04T09:50:24.465Z,57.63
2022-08-04T09:52:59.734Z,63.15
2022-08-04T09:55:53.578Z,61.80
2022-08-04T09:58:40.520Z,66.75
2022-08-04T10:01:12.680Z,61.78
2022-08-04T10:03:44.949Z,56.75
2022-08-04T10:06:35.286Z,59.47
2022-08-04T10:09:18.653Z,52.97
2022-08-04T10:12:06.651Z,58.13
2022-08-04T10:14:49.007Z,55.22
2022-08-04T10:17:29.097Z,56.58
2022-08-04T10:20:05.608Z,56.92
2022-08-04T10:23:02.091Z,59.53
2022-08-04T10:26:02.561Z,57.80
2022-08-04T10:28:29.154Z,55.80
2022-08-04T10:31:04.550Z,57.63
2022-08-04T10:33:38.899Z,57.50
2022-08-04T10:36:11.730Z,58.20
2022-08-04T10:38:50.975Z,55.70
2022-08-04T10:41:26.365Z,58.47
2022-08-04T10:44:07.617Z,57.97
2022-08-04T10:46:44.441Z,61.70
2022-08-04T10:49:24.528Z,61.58
2022-08-04T10:51:58.404Z,65.35
2022-08-04T10:54:32.994Z,64.70
2022-08-04T10:57:08.516Z,65.68
2022-08-04T10:59:42.044Z,84.20
2022-08-04T11:02:27.040Z,80.60
2022-08-04T11:05:02.570Z,71.57
2022-08-04T11:07:33.760Z,67.95
2022-08-04T11:10:02.876Z,66.00
2022-08-04T11:12:32.499Z,66.20
2022-08-04T11:15:06.151Z,66.57
2022-08-04T11:17:39.185Z,63.63
2022-08-04T11:20:34.505Z,64.63
2022-08-04T11:23:09.350Z,57.47
2022-08-04T11:25:48.474Z,58.80
2022-08-04T11:28:32.290Z,63.35
2022-08-04T11:31:06.211Z,62.78
2022-08-04T11:33:45.301Z,60.65
2022-08-04T11:36:22.726Z,61.20
2022-08-04T11:39:01.324Z,60.70
2022-08-04T11:41:41.612Z,59.28
2022-08-04T11:44:18.222Z,62.22
2022-08-04T11:46:55.442Z,61.90
2022-08-04T11:49:32.169Z,60.97
2022-08-04T11:52:21.889Z,62.35
2022-08-04T11:54:52.430Z,60.55
2022-08-04T11:57:23.395Z,58.90
2022-08-04T12:00:09.753Z,61.85
2022-08-04T12:03:00.038Z,67.57
2022-08-04T12:05:36.745Z,61.38
2022-08-04T12:08:22.483Z,64.20
2022-08-04T12:11:02.590Z,60.40
2022-08-04T12:13:40.842Z,67.20
2022-08-04T12:16:16.891Z,67.60
2022-08-04T12:18:52.626Z,61.75
2022-08-04T12:21:30.461Z,61.05
2022-08-04T12:24:03.184Z,66.60
2022-08-04T12:26:36.233Z,67.70
2022-08-04T12:29:11.395Z,70.53
2022-08-04T12:31:46.705Z,68.10
2022-08-04T12:34:18.921Z,70.30
2022-08-04T12:36:57.052Z,66.03
2022-08-04T12:39:28.136Z,64.32
2022-08-04T12:42:04.603Z,69.28
2022-08-04T12:44:37.668Z,71.50
2022-08-04T12:47:27.096Z,74.47
2022-08-04T12:50:03.498Z,71.75
2022-08-04T12:53:01.531Z,67.43
2022-08-04T12:55:28.814Z,67.47
2022-08-04T12:57:58.068Z,61.50
2022-08-04T13:00:31.165Z,62.38
2022-08-04T13:03:06.365Z,66.78
2022-08-04T13:05:40.934Z,61.83
2022-08-04T13:08:12.410Z,61.28
2022-08-04T13:10:42.781Z,61.72
2022-08-04T13:13:17.474Z,61.28
2022-08-04T13:18:50.119Z,62.38
2022-08-04T13:21:22.894Z,61.15
2022-08-04T13:24:22.045Z,57.63
2022-08-04T13:27:03.307Z,59.63
2022-08-04T13:30:00.267Z,58.45
2022-08-04T13:30:24.785Z,65.45
2022-08-04T13:32:27.642Z,59.22
2022-08-04T13:34:58.420Z,56.88
2022-08-04T13:37:38.941Z,57.45
2022-08-04T13:40:12.982Z,62.85
2022-08-04T13:42:42.947Z,60.53
2022-08-04T13:45:12.682Z,58.20
2022-08-04T13:47:42.038Z,61.58
2022-08-04T13:50:16.537Z,63.55
2022-08-04T13:52:46.127Z,61.55
2022-08-04T13:55:25.712Z,65.80
2022-08-04T13:58:04.155Z,62.42
2022-08-04T14:00:44.034Z,63.17
2022-08-04T14:03:19.015Z,63.90
2022-08-04T14:06:15.716Z,74.55
2022-08-04T14:08:53.084Z,59.55
2022-08-04T14:12:10.582Z,59.33
2022-08-04T14:14:23.567Z,63.17
2022-08-04T14:17:00.019Z,60.28
2022-08-04T14:19:35.903Z,58.05
2022-08-04T14:22:04.849Z,57.97
2022-08-04T14:24:32.994Z,62.15
2022-08-04T14:27:02.837Z,58.38
2022-08-04T14:29:38.935Z,61.70
2022-08-04T14:32:14.311Z,59.45
2022-08-04T14:34:45.014Z,59.70
2022-08-04T14:37:19.312Z,66.68
2022-08-04T14:40:17.719Z,63.85
2022-08-04T14:42:54.824Z,60.30
2022-08-04T14:45:33.247Z,59.50
2022-08-04T14:48:02.473Z,56.88
2022-08-04T14:50:39.094Z,57.38
2022-08-04T14:53:09.819Z,57.92
2022-08-04T14:55:38.839Z,57.30
2022-08-04T14:58:35.054Z,56.80
2022-08-04T15:00:59.200Z,57.55
2022-08-04T15:03:29.070Z,55.17
2022-08-04T15:06:05.328Z,58.33
2022-08-04T15:08:36.498Z,58.33
2022-08-04T15:11:04.618Z,62.30
2022-08-04T15:13:34.943Z,60.92
2022-08-04T15:16:08.147Z,64.40
2022-08-04T15:18:39.685Z,66.82
2022-08-04T15:21:09.120Z,65.47
2022-08-04T15:23:38.727Z,67.80
2022-08-04T15:26:12.627Z,67.95
2022-08-04T15:28:57.083Z,68.15
2022-08-04T15:32:07.625Z,76.63
2022-08-04T15:34:14.820Z,80.38
2022-08-04T15:36:57.064Z,80.93
2022-08-04T15:39:37.020Z,77.55
2022-08-04T15:42:21.601Z,78.95
2022-08-04T15:45:19.983Z,80.65
2022-08-04T15:48:28.405Z,80.00
2022-08-04T15:51:15.163Z,80.15
2022-08-04T15:54:23.387Z,82.82
2022-08-04T15:57:02.783Z,74.95
2022-08-04T15:59:57.846Z,71.32
2022-08-04T16:02:51.401Z,77.47
2022-08-04T16:05:36.885Z,77.78
2022-08-04T16:08:13.013Z,74.47
2022-08-04T16:10:43.157Z,73.65
2022-08-04T16:13:14.495Z,72.38
2022-08-04T16:15:45.108Z,75.38
2022-08-04T16:18:26.182Z,76.82
2022-08-04T16:20:57.850Z,76.60
2022-08-04T16:24:02.077Z,76.65
2022-08-04T16:26:55.122Z,76.50
2022-08-04T16:29:37.873Z,74.97
2022-08-04T16:32:26.147Z,78.80
2022-08-04T16:35:00.126Z,80.45
2022-08-04T16:37:33.456Z,81.55
2022-08-04T16:40:35.227Z,80.72
2022-08-04T16:43:07.196Z,77.85
2022-08-04T16:45:50.085Z,81.43
2022-08-04T16:48:19.189Z,78.38
2022-08-04T16:51:06.636Z,80.05
2022-08-04T16:53:52.374Z,81.40
2022-08-04T16:56:33.477Z,79.00
2022-08-04T16:59:09.444Z,82.07
2022-08-04T17:01:38.483Z,18.65
2022-08-04T17:04:07.540Z,19.08
2022-08-04T17:06:40.008Z,18.13
2022-08-04T17:09:12.730Z,18.20
2022-08-04T17:11:41.742Z,17.02
2022-08-04T17:14:10.605Z,18.90
2022-08-04T17:16:40.340Z,19.80
2022-08-04T17:19:24.198Z,19.13
2022-08-04T17:22:04.144Z,19.92
2022-08-04T17:24:34.046Z,18.92
2022-08-04T17:27:04.243Z,19.75
2022-08-04T17:29:42.730Z,19.35
2022-08-04T17:32:15.836Z,18.95
2022-08-04T17:34:48.833Z,19.35
2022-08-04T17:37:40.600Z,18.73
2022-08-04T17:40:10.687Z,18.73
2022-08-04T17:42:41.555Z,18.83
2022-08-04T17:47:59.857Z,19.05
2022-08-04T17:50:29.605Z,16.90
2022-08-04T17:53:12.155Z,18.35
2022-08-04T17:55:51.759Z,18.05
2022-08-04T17:58:26.933Z,19.50
2022-08-04T18:01:23.068Z,19.33
2022-08-04T18:03:58.055Z,18.63
2022-08-04T18:06:27.684Z,19.17
2022-08-04T18:09:22.444Z,19.08
2022-08-04T18:11:54.598Z,20.25
2022-08-04T18:14:25.885Z,18.85
2022-08-04T18:16:57.594Z,18.80
2022-08-04T18:19:25.737Z,19.02
2022-08-04T18:22:01.195Z,18.98
2022-08-04T18:24:35.991Z,19.52
2022-08-04T18:27:23.798Z,19.65
2022-08-04T18:30:33.591Z,19.85
2022-08-04T18:32:56.426Z,18.88
2022-08-04T18:41:10.913Z,20.15
2022-08-04T18:43:41.320Z,20.50
2022-08-04T18:46:14.307Z,19.67
2022-08-04T18:48:42.605Z,20.00
2022-08-04T18:51:24.258Z,20.52
2022-08-04T18:53:58.676Z,20.08
2022-08-04T18:56:32.834Z,19.80
2022-08-04T18:59:03.067Z,19.83
2022-08-04T19:02:13.171Z,19.58
2022-08-04T19:04:32.113Z,20.10
2022-08-04T19:08:01.458Z,19.98
2022-08-04T19:09:51.907Z,18.58
2022-08-04T19:12:26.830Z,20.38
2022-08-04T19:14:58.862Z,19.65
2022-08-04T19:20:25.878Z,19.50
2022-08-04T19:25:59.413Z,20.73
2022-08-04T19:28:35.479Z,19.55
2022-08-04T19:31:05.730Z,19.50
2022-08-04T19:33:58.793Z,20.10
2022-08-04T19:36:27.792Z,20.10
2022-08-04T19:38:58.244Z,19.13
2022-08-04T19:41:27.090Z,19.70
2022-08-04T19:43:57.016Z,19.23
2022-08-04T19:46:27.866Z,19.55
2022-08-04T19:48:59.334Z,21.15
2022-08-04T19:51:30.051Z,19.45
2022-08-04T19:54:02.953Z,19.42
2022-08-04T19:56:40.199Z,19.25
2022-08-04T19:59:15.565Z,20.08
2022-08-04T20:01:45.768Z,19.17
2022-08-04T20:04:24.580Z,18.40
2022-08-04T20:06:58.193Z,18.17
2022-08-04T20:09:27.367Z,19.63
2022-08-04T20:11:56.547Z,18.80
2022-08-04T20:14:31.510Z,19.30
2022-08-04T20:17:02.072Z,18.40
2022-08-04T20:19:32.230Z,18.58
2022-08-04T20:22:05.173Z,17.90
2022-08-04T20:25:01.031Z,19.52
2022-08-04T20:30:34.191Z,18.70
2022-08-04T20:33:04.374Z,19.30
2022-08-04T20:38:33.209Z,18.98
2022-08-04T20:41:02.305Z,19.25
2022-08-04T20:43:32.651Z,18.70
2022-08-04T20:46:17.925Z,18.65
2022-08-04T20:48:46.882Z,18.92
2022-08-04T20:51:19.970Z,18.65
2022-08-04T20:53:57.270Z,18.67
2022-08-04T20:56:31.427Z,19.35
2022-08-04T20:59:00.237Z,18.95
2022-08-04T21:01:30.794Z,18.05
2022-08-04T21:04:27.277Z,18.92
2022-08-04T21:06:57.953Z,17.48
2022-08-04T21:09:38.210Z,18.70
2022-08-04T21:12:26.663Z,18.17
2022-08-04T21:14:55.315Z,18.10
2022-08-04T21:17:58.959Z,18.85
2022-08-04T21:20:27.280Z,18.30
2022-08-04T21:23:01.725Z,18.90
2022-08-04T21:25:32.395Z,18.10
2022-08-04T21:28:10.757Z,18.45
2022-08-04T21:30:54.276Z,17.88
2022-08-04T21:33:50.021Z,20.58
2022-08-04T21:36:16.165Z,18.38
2022-08-04T21:38:52.172Z,17.85
2022-08-04T21:41:25.014Z,19.38
2022-08-04T21:43:55.452Z,18.83
2022-08-04T21:46:24.351Z,18.85
2022-08-04T21:48:53.778Z,18.45
2022-08-04T21:51:58.457Z,18.65
2022-08-04T21:54:17.042Z,18.77
2022-08-04T21:56:51.385Z,19.05
2022-08-04T21:59:23.617Z,18.95
2022-08-04T22:02:00.265Z,17.13
2022-08-04T22:04:49.622Z,18.83
2022-08-04T22:07:17.871Z,17.17
2022-08-04T22:09:59.978Z,17.35
2022-08-04T22:12:31.127Z,18.08
2022-08-04T22:15:02.215Z,17.85
2022-08-04T22:17:50.300Z,17.50
2022-08-04T22:20:28.066Z,18.13
2022-08-04T22:23:03.348Z,17.08
2022-08-04T22:25:37.771Z,17.38
2022-08-04T22:28:07.880Z,17.05
2022-08-04T22:30:37.807Z,18.48
2022-08-04T22:33:08.929Z,18.17
2022-08-04T22:35:49.019Z,18.45
2022-08-04T22:38:35.831Z,18.83
2022-08-04T22:41:10.834Z,19.27
2022-08-04T22:43:40.827Z,18.02
2022-08-04T22:46:12.033Z,18.88
2022-08-04T22:48:43.402Z,17.65
2022-08-04T22:51:14.330Z,17.75
2022-08-04T22:53:48.809Z,16.95
2022-08-04T22:56:37.486Z,17.90
2022-08-04T22:59:06.081Z,17.38
2022-08-04T23:01:59.412Z,18.27
2022-08-04T23:04:25.016Z,17.58
2022-08-04T23:06:55.222Z,17.08
2022-08-04T23:09:48.890Z,17.67
2022-08-04T23:12:27.671Z,16.52
2022-08-04T23:14:56.906Z,17.10
2022-08-04T23:17:25.510Z,17.00
2022-08-04T23:19:58.020Z,18.25
2022-08-04T23:22:41.807Z,17.65
2022-08-04T23:25:15.365Z,16.73
2022-08-04T23:27:50.824Z,16.17
2022-08-04T23:30:21.711Z,16.92
2022-08-04T23:32:52.771Z,17.00
2022-08-04T23:35:22.133Z,16.95
2022-08-04T23:37:57.630Z,17.48
2022-08-04T23:40:33.019Z,17.35
2022-08-04T23:43:02.314Z,16.20
2022-08-04T23:46:04.593Z,18.45
2022-08-04T23:48:33.058Z,15.77
2022-08-04T23:51:04.673Z,15.25
2022-08-04T23:54:02.319Z,15.50
2022-08-04T23:56:32.986Z,15.25
2022-08-04T23:59:04.106Z,15.63
